Terminal Aerodrome Forecast
Issued by NWS

Home | Current Version | Previous Version | Graphics & Text | Print | Product List | Glossary On
Versions: 1 2 3 4 5 6 7 8 9 10 11 12 13 14
803
FTUS43 KTOP 171134
TAFMHK
TAF
KMHK 171134Z 1712/1812 21005KT P6SM SKC WS008/22035KT
     FM171300 21009KT P6SM SKC
     FM171600 21012G20KT P6SM SKC=

USA.gov is the U.S. government's official web portal to all federal, state and local government web resources and services.